createdAt,value
2019-01-04T00:00:58.103Z,987.04
2019-01-04T00:01:57.955Z,987.07
2019-01-04T00:02:58.031Z,987.11
2019-01-04T00:03:58.073Z,987.11
2019-01-04T00:04:57.888Z,987.14
2019-01-04T00:05:57.833Z,987.14
2019-01-04T00:06:57.829Z,987.16
2019-01-04T00:07:57.802Z,987.16
2019-01-04T00:08:58.665Z,987.20
2019-01-04T00:09:57.760Z,987.19
2019-01-04T00:10:57.744Z,987.25
2019-01-04T00:11:57.725Z,987.21
2019-01-04T00:12:57.692Z,987.21
2019-01-04T00:13:57.766Z,987.22
2019-01-04T00:14:57.646Z,987.19
2019-01-04T00:15:57.607Z,987.21
2019-01-04T00:16:57.607Z,987.25
2019-01-04T00:17:57.569Z,987.20
2019-01-04T00:18:57.678Z,987.24
2019-01-04T00:19:57.689Z,987.22
2019-01-04T00:20:57.513Z,987.27
2019-01-04T00:21:57.465Z,987.24
2019-01-04T00:22:57.648Z,987.25
2019-01-04T00:23:57.408Z,987.25
2019-01-04T00:24:57.909Z,987.25
2019-01-04T00:25:57.545Z,987.27
2019-01-04T00:26:57.405Z,987.31
2019-01-04T00:27:57.346Z,987.31
2019-01-04T00:28:57.279Z,987.37
2019-01-04T00:29:57.303Z,987.38
2019-01-04T00:30:57.399Z,987.40
2019-01-04T00:31:57.227Z,987.44
2019-01-04T00:32:57.192Z,987.39
2019-01-04T00:33:57.178Z,987.45
2019-01-04T00:34:57.134Z,987.46
2019-01-04T00:35:57.173Z,987.46
2019-01-04T00:36:57.090Z,987.49
2019-01-04T00:37:57.099Z,987.51
2019-01-04T00:38:57.054Z,987.60
2019-01-04T00:39:57.010Z,987.57
2019-01-04T00:40:57.297Z,987.62
2019-01-04T00:41:57.000Z,987.62
2019-01-04T00:42:56.969Z,987.62
2019-01-04T00:43:56.941Z,987.63
2019-01-04T00:44:56.906Z,987.67
2019-01-04T00:45:56.980Z,987.68
2019-01-04T00:46:57.057Z,987.69
2019-01-04T00:47:57.117Z,987.72
2019-01-04T00:48:57.157Z,987.73
2019-01-04T00:49:57.353Z,987.74
2019-01-04T00:50:58.596Z,987.76
2019-01-04T00:51:57.717Z,987.80
2019-01-04T00:52:57.062Z,987.81
2019-01-04T00:53:56.884Z,987.83
2019-01-04T00:54:57.486Z,987.84
2019-01-04T00:55:56.936Z,987.80
2019-01-04T00:56:56.802Z,987.84
2019-01-04T00:57:56.813Z,987.85
2019-01-04T00:58:56.696Z,987.86
2019-01-04T00:59:57.168Z,987.88
2019-01-04T01:00:57.266Z,987.91
2019-01-04T01:01:56.601Z,987.90
2019-01-04T01:02:57.149Z,987.90
2019-01-04T01:03:56.519Z,987.93
2019-01-04T01:04:57.418Z,987.94
2019-01-04T01:05:56.617Z,987.97
2019-01-04T01:06:56.397Z,988.01
2019-01-04T01:07:56.333Z,988.01
2019-01-04T01:08:56.759Z,988.03
2019-01-04T01:09:56.633Z,988.02
2019-01-04T01:10:56.904Z,988.04
2019-01-04T01:11:56.429Z,988.04
2019-01-04T01:12:56.841Z,988.08
2019-01-04T01:13:57.579Z,988.11
2019-01-04T01:14:56.746Z,988.13
2019-01-04T01:15:56.561Z,988.18
2019-01-04T01:16:56.353Z,988.23
2019-01-04T01:17:56.400Z,988.29
2019-01-04T01:18:57.182Z,988.27
2019-01-04T01:19:56.161Z,988.34
2019-01-04T01:20:56.032Z,988.31
2019-01-04T01:21:57.021Z,988.31
2019-01-04T01:22:55.974Z,988.34
2019-01-04T01:23:56.984Z,988.29
2019-01-04T01:24:56.306Z,988.31
2019-01-04T01:25:56.821Z,988.29
2019-01-04T01:26:56.880Z,988.28
2019-01-04T01:27:56.049Z,988.27
2019-01-04T01:28:56.079Z,988.28
2019-01-04T01:29:56.022Z,988.24
2019-01-04T01:30:56.349Z,988.26
2019-01-04T01:31:56.321Z,988.26
2019-01-04T01:32:55.946Z,988.27
2019-01-04T01:33:55.899Z,988.32
2019-01-04T01:34:56.466Z,988.34
2019-01-04T01:35:55.813Z,988.35
2019-01-04T01:36:56.309Z,988.34
2019-01-04T01:37:55.679Z,988.33
2019-01-04T01:38:55.825Z,988.39
2019-01-04T01:39:55.607Z,988.38
2019-01-04T01:40:56.965Z,988.34
2019-01-04T01:41:55.548Z,988.38
2019-01-04T01:42:55.545Z,988.43
2019-01-04T01:43:55.477Z,988.39
2019-01-04T01:44:55.403Z,988.43
2019-01-04T01:45:55.425Z,988.44
2019-01-04T01:46:55.890Z,988.45
2019-01-04T01:47:55.397Z,988.50
2019-01-04T01:48:55.322Z,988.49
2019-01-04T01:49:55.288Z,988.51
2019-01-04T01:50:55.296Z,988.52
2019-01-04T01:51:55.382Z,988.49
2019-01-04T01:52:55.735Z,988.56
2019-01-04T01:53:55.192Z,988.54
2019-01-04T01:54:55.224Z,988.55
2019-01-04T01:55:55.619Z,988.56
2019-01-04T01:57:56.497Z,988.53
2019-01-04T01:58:55.165Z,988.51
2019-01-04T01:59:55.025Z,988.50
2019-01-04T02:00:55.023Z,988.49
2019-01-04T02:01:55.074Z,988.49
2019-01-04T02:02:55.200Z,988.49
2019-01-04T02:03:54.954Z,988.48
2019-01-04T02:04:54.994Z,988.45
2019-01-04T02:05:54.943Z,988.45
2019-01-04T02:06:54.847Z,988.46
2019-01-04T02:07:55.094Z,988.49
2019-01-04T02:08:54.811Z,988.55
2019-01-04T02:09:54.868Z,988.57
2019-01-04T02:10:54.775Z,988.56
2019-01-04T02:11:54.757Z,988.65
2019-01-04T02:12:54.756Z,988.67
2019-01-04T02:13:55.057Z,988.66
2019-01-04T02:14:54.634Z,988.69
2019-01-04T02:15:55.154Z,988.65
2019-01-04T02:16:54.837Z,988.71
2019-01-04T02:17:54.610Z,988.70
2019-01-04T02:18:54.736Z,988.74
2019-01-04T02:19:54.600Z,988.71
2019-01-04T02:20:54.552Z,988.74
2019-01-04T02:21:54.498Z,988.70
2019-01-04T02:22:54.496Z,988.72
2019-01-04T02:23:54.441Z,988.78
2019-01-04T02:24:54.763Z,988.77
2019-01-04T02:25:55.013Z,988.80
2019-01-04T02:26:54.654Z,988.82
2019-01-04T02:27:54.348Z,988.84
2019-01-04T02:28:54.311Z,988.85
2019-01-04T02:29:54.308Z,988.86
2019-01-04T02:30:54.500Z,988.85
2019-01-04T02:31:54.233Z,988.82
2019-01-04T02:32:54.204Z,988.78
2019-01-04T02:33:54.213Z,988.79
2019-01-04T02:34:54.170Z,988.77
2019-01-04T02:35:54.247Z,988.76
2019-01-04T02:36:54.121Z,988.76
2019-01-04T02:37:54.076Z,988.75
2019-01-04T02:38:54.100Z,988.78
2019-01-04T02:39:54.035Z,988.78
2019-01-04T02:40:54.103Z,988.75
2019-01-04T02:41:54.143Z,988.74
2019-01-04T02:42:54.030Z,988.77
2019-01-04T02:43:53.951Z,988.76
2019-01-04T02:44:53.896Z,988.74
2019-01-04T02:45:53.933Z,988.75
2019-01-04T02:46:54.105Z,988.78
2019-01-04T02:47:53.834Z,988.77
2019-01-04T02:48:53.862Z,988.77
2019-01-04T02:49:53.796Z,988.79
2019-01-04T02:50:53.746Z,988.83
2019-01-04T02:51:53.823Z,988.81
2019-01-04T02:52:53.698Z,988.82
2019-01-04T02:53:53.684Z,988.82
2019-01-04T02:54:53.640Z,988.82
2019-01-04T02:55:53.620Z,988.81
2019-01-04T02:56:53.718Z,988.80
2019-01-04T02:57:53.604Z,988.74
2019-01-04T02:58:53.546Z,988.76
2019-01-04T02:59:53.505Z,988.76
2019-01-04T03:00:53.499Z,988.75
2019-01-04T03:01:53.492Z,988.77
2019-01-04T03:02:53.483Z,988.77
2019-01-04T03:03:53.422Z,988.77
2019-01-04T03:04:53.387Z,988.78
2019-01-04T03:05:53.357Z,988.80
2019-01-04T03:06:53.349Z,988.77
2019-01-04T03:07:53.326Z,988.80
2019-01-04T03:08:53.390Z,988.80
2019-01-04T03:09:53.290Z,988.79
2019-01-04T03:10:53.247Z,988.84
2019-01-04T03:11:53.202Z,988.84
2019-01-04T03:12:53.187Z,988.85
2019-01-04T03:13:53.266Z,988.84
2019-01-04T03:14:53.205Z,988.84
2019-01-04T03:15:53.124Z,988.84
2019-01-04T03:16:53.100Z,988.83
2019-01-04T03:17:53.078Z,988.83
2019-01-04T03:18:53.169Z,988.88
2019-01-04T03:19:53.002Z,988.89
2019-01-04T03:20:52.970Z,988.89
2019-01-04T03:21:53.029Z,988.89
2019-01-04T03:22:52.939Z,988.90
2019-01-04T03:23:52.982Z,988.88
2019-01-04T03:24:52.994Z,988.87
2019-01-04T03:25:52.861Z,988.83
2019-01-04T03:26:52.830Z,988.84
2019-01-04T03:27:52.808Z,988.86
2019-01-04T03:28:52.791Z,988.83
2019-01-04T03:29:52.886Z,988.83
2019-01-04T03:30:54.309Z,988.85
2019-01-04T03:31:52.700Z,988.84
2019-01-04T03:32:52.695Z,988.78
2019-01-04T03:33:52.645Z,988.76
2019-01-04T03:34:52.734Z,988.72
2019-01-04T03:35:52.599Z,988.69
2019-01-04T03:36:52.585Z,988.68
2019-01-04T03:37:52.554Z,988.62
2019-01-04T03:38:52.529Z,988.69
2019-01-04T03:39:52.608Z,988.68
2019-01-04T03:40:52.477Z,988.71
2019-01-04T03:41:52.455Z,988.72
2019-01-04T03:42:52.438Z,988.76
2019-01-04T03:43:52.392Z,988.76
2019-01-04T03:44:52.361Z,988.78
2019-01-04T03:45:52.451Z,988.77
2019-01-04T03:46:52.540Z,988.75
2019-01-04T03:47:52.301Z,988.79
2019-01-04T03:48:52.292Z,988.73
2019-01-04T03:49:52.285Z,988.73
2019-01-04T03:50:52.328Z,988.72
2019-01-04T03:51:52.227Z,988.70
2019-01-04T03:52:52.169Z,988.73
2019-01-04T03:53:52.162Z,988.74
2019-01-04T03:54:52.123Z,988.78
2019-01-04T03:55:52.179Z,988.76
2019-01-04T03:56:52.160Z,988.73
2019-01-04T03:57:52.030Z,988.70
2019-01-04T03:58:52.046Z,988.69
2019-01-04T03:59:52.002Z,988.69
2019-01-04T04:00:51.972Z,988.70
2019-01-04T04:01:51.984Z,988.70
2019-01-04T04:02:52.026Z,988.71
2019-01-04T04:03:51.883Z,988.69
2019-01-04T04:04:51.883Z,988.72
2019-01-04T04:05:51.844Z,988.71
2019-01-04T04:06:51.793Z,988.69
2019-01-04T04:07:51.878Z,988.70
2019-01-04T04:08:51.786Z,988.72
2019-01-04T04:09:51.696Z,988.70
2019-01-04T04:10:51.706Z,988.75
2019-01-04T04:11:51.683Z,988.73
2019-01-04T04:12:51.766Z,988.71
2019-01-04T04:13:51.643Z,988.74
2019-01-04T04:14:51.614Z,988.70
2019-01-04T04:15:51.579Z,988.68
2019-01-04T04:16:51.565Z,988.68
2019-01-04T04:17:51.627Z,988.64
2019-01-04T04:18:51.530Z,988.62
2019-01-04T04:19:51.488Z,988.63
2019-01-04T04:20:51.455Z,988.60
2019-01-04T04:21:53.449Z,988.60
2019-01-04T04:22:51.394Z,988.58
2019-01-04T04:23:51.470Z,988.57
2019-01-04T04:24:51.385Z,988.57
2019-01-04T04:25:51.350Z,988.58
2019-01-04T04:26:52.458Z,988.52
2019-01-04T04:27:52.764Z,988.47
2019-01-04T04:28:51.417Z,988.46
2019-01-04T04:29:51.206Z,988.41
2019-01-04T04:30:51.200Z,988.42
2019-01-04T04:31:51.172Z,988.36
2019-01-04T04:32:51.151Z,988.38
2019-01-04T04:33:51.190Z,988.39
2019-01-04T04:34:51.197Z,988.38
2019-01-04T04:35:51.171Z,988.36
2019-01-04T04:36:51.034Z,988.34
2019-01-04T04:37:51.015Z,988.32
2019-01-04T04:38:50.988Z,988.30
2019-01-04T04:39:51.072Z,988.31
2019-01-04T04:40:51.020Z,988.30
2019-01-04T04:41:50.902Z,988.31
2019-01-04T04:42:50.865Z,988.27
2019-01-04T04:43:50.834Z,988.27
2019-01-04T04:44:50.931Z,988.28
2019-01-04T04:45:50.802Z,988.29
2019-01-04T04:46:50.796Z,988.34
2019-01-04T04:47:50.751Z,988.34
2019-01-04T04:48:50.731Z,988.38
2019-01-04T04:49:50.824Z,988.34
2019-01-04T04:50:50.773Z,988.37
2019-01-04T04:51:50.644Z,988.40
2019-01-04T04:52:50.686Z,988.42
2019-01-04T04:53:50.605Z,988.37
2019-01-04T04:54:50.649Z,988.40
2019-01-04T04:55:50.578Z,988.38
2019-01-04T04:56:50.526Z,988.39
2019-01-04T04:57:50.491Z,988.40
2019-01-04T04:58:50.453Z,988.40
2019-01-04T04:59:50.444Z,988.40
2019-01-04T05:00:50.496Z,988.40
2019-01-04T05:01:50.395Z,988.37
2019-01-04T05:02:50.375Z,988.35
2019-01-04T05:03:50.325Z,988.36
2019-01-04T05:04:50.408Z,988.38
2019-01-04T05:05:50.387Z,988.35
2019-01-04T05:06:50.404Z,988.36
2019-01-04T05:07:50.210Z,988.36
2019-01-04T05:08:50.216Z,988.38
2019-01-04T05:09:50.226Z,988.36
2019-01-04T05:10:50.132Z,988.37
2019-01-04T05:11:50.167Z,988.35
2019-01-04T05:12:50.204Z,988.37
2019-01-04T05:13:50.083Z,988.31
2019-01-04T05:14:50.053Z,988.34
2019-01-04T05:15:50.020Z,988.31
2019-01-04T05:16:50.065Z,988.33
2019-01-04T05:17:50.070Z,988.29
2019-01-04T05:18:49.939Z,988.28
2019-01-04T05:19:49.971Z,988.26
2019-01-04T05:20:49.886Z,988.27
2019-01-04T05:21:49.867Z,988.26
2019-01-04T05:22:50.204Z,988.28
2019-01-04T05:23:49.820Z,988.24
2019-01-04T05:24:49.801Z,988.29
2019-01-04T05:25:49.758Z,988.30
2019-01-04T05:26:49.723Z,988.31
2019-01-04T05:27:49.822Z,988.32
2019-01-04T05:28:49.683Z,988.33
2019-01-04T05:29:49.674Z,988.30
2019-01-04T05:30:49.624Z,988.29
2019-01-04T05:31:49.624Z,988.29
2019-01-04T05:32:49.678Z,988.30
2019-01-04T05:33:49.576Z,988.35
2019-01-04T05:34:49.567Z,988.34
2019-01-04T05:35:49.514Z,988.34
2019-01-04T05:36:49.474Z,988.34
2019-01-04T05:37:49.445Z,988.35
2019-01-04T05:38:49.542Z,988.31
2019-01-04T05:39:49.406Z,988.32
2019-01-04T05:40:49.384Z,988.33
2019-01-04T05:41:49.331Z,988.34
2019-01-04T05:42:49.328Z,988.33
2019-01-04T05:43:49.335Z,988.35
2019-01-04T05:44:49.369Z,988.30
2019-01-04T05:45:49.216Z,988.29
2019-01-04T05:46:49.219Z,988.29
2019-01-04T05:47:49.169Z,988.28
2019-01-04T05:48:49.234Z,988.25
2019-01-04T05:49:49.229Z,988.26
2019-01-04T05:50:49.413Z,988.21
2019-01-04T05:51:49.147Z,988.19
2019-01-04T05:52:49.044Z,988.15
2019-01-04T05:53:49.090Z,988.13
2019-01-04T05:54:49.139Z,988.10
2019-01-04T05:55:48.983Z,988.07
2019-01-04T05:56:48.962Z,988.08
2019-01-04T05:57:48.939Z,988.03
2019-01-04T05:58:48.904Z,988.00
2019-01-04T05:59:48.985Z,988.02
2019-01-04T06:00:48.832Z,988.00
2019-01-04T06:01:48.854Z,987.97
2019-01-04T06:02:48.808Z,987.93
2019-01-04T06:03:48.783Z,987.91
2019-01-04T06:04:48.857Z,987.87
2019-01-04T06:05:48.761Z,987.84
2019-01-04T06:06:48.693Z,987.79
2019-01-04T06:07:48.664Z,987.79
2019-01-04T06:08:48.660Z,987.80
2019-01-04T06:09:48.755Z,987.80
2019-01-04T06:10:48.588Z,987.79
2019-01-04T06:11:48.569Z,987.80
2019-01-04T06:12:48.532Z,987.76
2019-01-04T06:13:48.505Z,987.72
2019-01-04T06:14:48.477Z,987.73
2019-01-04T06:15:48.555Z,987.71
2019-01-04T06:16:48.435Z,987.69
2019-01-04T06:17:48.454Z,987.64
2019-01-04T06:18:48.387Z,987.58
2019-01-04T06:19:48.334Z,987.51
2019-01-04T06:20:48.337Z,987.48
2019-01-04T06:21:48.397Z,987.48
2019-01-04T06:22:48.285Z,987.42
2019-01-04T06:23:48.258Z,987.42
2019-01-04T06:24:48.396Z,987.45
2019-01-04T06:25:49.351Z,987.41
2019-01-04T06:26:48.309Z,987.39
2019-01-04T06:27:48.132Z,987.38
2019-01-04T06:28:48.123Z,987.41
2019-01-04T06:29:48.079Z,987.40
2019-01-04T06:30:48.067Z,987.40
2019-01-04T06:31:50.151Z,987.35
2019-01-04T06:32:48.018Z,987.37
2019-01-04T06:33:47.995Z,987.30
2019-01-04T06:34:47.972Z,987.30
2019-01-04T06:35:49.521Z,987.25
2019-01-04T06:36:47.913Z,987.25
2019-01-04T06:37:47.994Z,987.22
2019-01-04T06:38:47.861Z,987.17
2019-01-04T06:39:49.226Z,987.17
2019-01-04T06:40:47.785Z,987.14
2019-01-04T06:41:47.774Z,987.12
2019-01-04T06:42:47.858Z,987.12
2019-01-04T06:43:47.714Z,987.10
2019-01-04T06:44:47.671Z,987.13
2019-01-04T06:45:47.820Z,987.10
2019-01-04T06:46:47.694Z,987.05
2019-01-04T06:47:47.714Z,987.03
2019-01-04T06:48:47.584Z,986.97
2019-01-04T06:49:47.564Z,986.95
2019-01-04T06:50:47.527Z,986.91
2019-01-04T06:51:47.525Z,986.88
2019-01-04T06:52:47.541Z,986.90
2019-01-04T06:53:47.651Z,986.85
2019-01-04T06:54:47.432Z,986.80
2019-01-04T06:55:47.464Z,986.80
2019-01-04T06:56:47.377Z,986.81
2019-01-04T06:57:47.361Z,986.75
2019-01-04T06:58:47.316Z,986.78
2019-01-04T06:59:47.407Z,986.75
2019-01-04T07:00:47.358Z,986.71
2019-01-04T07:01:47.228Z,986.71
2019-01-04T07:02:47.245Z,986.69
2019-01-04T07:03:47.198Z,986.68
2019-01-04T07:04:47.268Z,986.68
2019-01-04T07:05:47.145Z,986.66
2019-01-04T07:06:47.118Z,986.64
2019-01-04T07:07:47.120Z,986.66
2019-01-04T07:08:47.049Z,986.66
2019-01-04T07:09:47.179Z,986.64
2019-01-04T07:10:47.006Z,986.65
2019-01-04T07:11:47.015Z,986.69
2019-01-04T07:12:46.981Z,986.69
2019-01-04T07:13:46.915Z,986.66
2019-01-04T07:14:46.993Z,986.70
2019-01-04T07:15:46.909Z,986.69
2019-01-04T07:16:46.902Z,986.70
2019-01-04T07:17:47.286Z,986.72
2019-01-04T07:18:46.832Z,986.72
2019-01-04T07:19:46.895Z,986.73
2019-01-04T07:20:46.751Z,986.73
2019-01-04T07:21:46.724Z,986.70
2019-01-04T07:22:46.715Z,986.71
2019-01-04T07:23:46.707Z,986.69
2019-01-04T07:24:46.759Z,986.69
2019-01-04T07:25:46.643Z,986.68
2019-01-04T07:26:46.591Z,986.68
2019-01-04T07:27:46.554Z,986.68
2019-01-04T07:28:46.534Z,986.69
2019-01-04T07:29:46.520Z,986.69
2019-01-04T07:30:46.597Z,986.68
2019-01-04T07:31:46.470Z,986.65
2019-01-04T07:32:46.428Z,986.62
2019-01-04T07:33:46.406Z,986.63
2019-01-04T07:34:46.382Z,986.60
2019-01-04T07:35:46.350Z,986.59
2019-01-04T07:36:46.405Z,986.58
2019-01-04T07:37:46.333Z,986.56
2019-01-04T07:38:46.302Z,986.56
2019-01-04T07:39:46.230Z,986.53
2019-01-04T07:40:46.225Z,986.52
2019-01-04T07:41:46.322Z,986.49
2019-01-04T07:42:46.177Z,986.49
2019-01-04T07:43:46.140Z,986.45
2019-01-04T07:44:46.105Z,986.43
2019-01-04T07:45:46.101Z,986.41
2019-01-04T07:46:46.240Z,986.40
2019-01-04T07:47:46.076Z,986.41
2019-01-04T07:48:45.998Z,986.36
2019-01-04T07:49:45.949Z,986.35
2019-01-04T07:50:45.944Z,986.36
2019-01-04T07:51:46.026Z,986.32
2019-01-04T07:52:45.894Z,986.30
2019-01-04T07:53:45.876Z,986.22
2019-01-04T07:54:45.830Z,986.22
2019-01-04T07:55:45.818Z,986.22
2019-01-04T07:56:45.923Z,986.22
2019-01-04T07:57:45.754Z,986.20
2019-01-04T07:58:45.730Z,986.21
2019-01-04T07:59:45.742Z,986.22
2019-01-04T08:00:45.657Z,986.22
2019-01-04T08:01:45.645Z,986.22
2019-01-04T08:02:45.717Z,986.23
2019-01-04T08:03:45.604Z,986.22
2019-01-04T08:04:45.593Z,986.25
2019-01-04T08:05:45.544Z,986.22
2019-01-04T08:06:45.601Z,986.21
2019-01-04T08:07:45.603Z,986.20
2019-01-04T08:08:45.468Z,986.19
2019-01-04T08:09:45.452Z,986.19
2019-01-04T08:10:47.188Z,986.19
2019-01-04T08:11:45.381Z,986.16
2019-01-04T08:12:45.385Z,986.18
2019-01-04T08:13:45.444Z,986.20
2019-01-04T08:14:45.326Z,986.19
2019-01-04T08:15:45.317Z,986.19
2019-01-04T08:16:45.277Z,986.21
2019-01-04T08:17:45.217Z,986.20
2019-01-04T08:18:45.292Z,986.19
2019-01-04T08:19:45.177Z,986.23
2019-01-04T08:20:45.154Z,986.21
2019-01-04T08:21:45.119Z,986.21
2019-01-04T08:22:45.113Z,986.26
2019-01-04T08:23:45.185Z,986.22
2019-01-04T08:24:45.059Z,986.27
2019-01-04T08:25:45.019Z,986.22
2019-01-04T08:26:44.989Z,986.24
2019-01-04T08:27:44.951Z,986.25
2019-01-04T08:28:45.032Z,986.25
2019-01-04T08:29:44.920Z,986.26
2019-01-04T08:30:44.877Z,986.26
2019-01-04T08:31:44.841Z,986.23
2019-01-04T08:32:44.870Z,986.24
2019-01-04T08:33:44.931Z,986.25
2019-01-04T08:34:44.799Z,986.21
2019-01-04T08:35:44.764Z,986.21
2019-01-04T08:36:44.723Z,986.24
2019-01-04T08:37:44.693Z,986.24
2019-01-04T08:38:44.755Z,986.26
2019-01-04T08:39:44.793Z,986.27
2019-01-04T08:40:44.646Z,986.26
2019-01-04T08:41:44.634Z,986.29
2019-01-04T08:42:44.566Z,986.25
2019-01-04T08:43:44.551Z,986.20
2019-01-04T08:44:44.616Z,986.23
2019-01-04T08:45:44.483Z,986.25
2019-01-04T08:46:44.450Z,986.21
2019-01-04T08:47:44.430Z,986.22
2019-01-04T08:48:44.455Z,986.20
2019-01-04T08:49:44.412Z,986.22
2019-01-04T08:50:44.449Z,986.20
2019-01-04T08:51:44.369Z,986.20
2019-01-04T08:52:44.317Z,986.18
2019-01-04T08:53:44.288Z,986.18
2019-01-04T08:54:44.263Z,986.17
2019-01-04T08:55:44.310Z,986.20
2019-01-04T08:56:44.204Z,986.20
2019-01-04T08:57:44.158Z,986.15
2019-01-04T08:58:44.165Z,986.20
2019-01-04T08:59:44.111Z,986.15
2019-01-04T09:00:44.178Z,986.14
2019-01-04T09:01:44.049Z,986.13
2019-01-04T09:02:44.022Z,986.10
2019-01-04T09:03:44.002Z,986.09
2019-01-04T09:04:44.015Z,986.08
2019-01-04T09:05:44.030Z,986.10
2019-01-04T09:06:43.913Z,986.09
2019-01-04T09:07:43.890Z,986.08
2019-01-04T09:08:43.880Z,986.07
2019-01-04T09:09:43.849Z,986.06
2019-01-04T09:10:43.883Z,986.02
2019-01-04T09:11:43.931Z,986.00
2019-01-04T09:12:43.754Z,986.02
2019-01-04T09:13:43.762Z,986.01
2019-01-04T09:14:43.713Z,986.00
2019-01-04T09:15:43.721Z,986.01
2019-01-04T09:16:43.812Z,986.02
2019-01-04T09:17:43.614Z,986.02
2019-01-04T09:18:43.604Z,985.99
2019-01-04T09:19:43.578Z,986.03
2019-01-04T09:20:43.536Z,986.02
2019-01-04T09:21:43.652Z,986.03
2019-01-04T09:22:43.514Z,986.04
2019-01-04T09:23:43.497Z,986.06
2019-01-04T09:24:43.470Z,986.05
2019-01-04T09:25:43.430Z,986.07
2019-01-04T09:26:43.388Z,986.06
2019-01-04T09:27:43.481Z,986.03
2019-01-04T09:28:43.318Z,986.05
2019-01-04T09:29:43.305Z,986.05
2019-01-04T09:30:43.297Z,986.02
2019-01-04T09:31:43.264Z,986.04
2019-01-04T09:32:43.367Z,986.01
2019-01-04T09:33:43.233Z,986.04
2019-01-04T09:34:43.176Z,986.05
2019-01-04T09:35:43.173Z,986.06
2019-01-04T09:36:43.129Z,986.06
2019-01-04T09:37:43.231Z,986.09
2019-01-04T09:38:43.120Z,986.05
2019-01-04T09:39:43.061Z,986.03
2019-01-04T09:40:43.053Z,986.04
2019-01-04T09:41:42.990Z,986.04
2019-01-04T09:42:43.087Z,986.01
2019-01-04T09:43:42.913Z,986.04
2019-01-04T09:44:42.910Z,986.00
2019-01-04T09:45:42.881Z,986.02
2019-01-04T09:46:42.866Z,986.02
2019-01-04T09:47:42.889Z,986.00
2019-01-04T09:48:42.903Z,986.04
2019-01-04T09:49:44.325Z,986.06
2019-01-04T09:50:42.751Z,986.05
2019-01-04T09:51:44.371Z,986.07
2019-01-04T09:52:43.801Z,986.04
2019-01-04T09:53:43.992Z,986.10
2019-01-04T09:54:43.630Z,986.07
2019-01-04T09:55:42.649Z,986.05
2019-01-04T09:56:44.520Z,986.04
2019-01-04T09:57:44.303Z,986.03
2019-01-04T09:58:42.828Z,986.03
2019-01-04T09:59:44.940Z,986.02
2019-01-04T10:00:43.768Z,986.03
2019-01-04T10:01:44.006Z,986.05
2019-01-04T10:02:43.893Z,986.04
2019-01-04T10:03:44.284Z,986.08
2019-01-04T10:04:42.414Z,986.10
2019-01-04T10:05:42.507Z,986.12
2019-01-04T10:06:43.868Z,986.11
2019-01-04T10:07:42.373Z,986.12
2019-01-04T10:08:45.026Z,986.14
2019-01-04T10:09:42.251Z,986.16
2019-01-04T10:10:42.224Z,986.13
2019-01-04T10:11:42.333Z,986.13
2019-01-04T10:12:42.170Z,986.12
2019-01-04T10:13:42.148Z,986.12
2019-01-04T10:14:42.133Z,986.11
2019-01-04T10:15:42.105Z,986.14
2019-01-04T10:16:42.171Z,986.14
2019-01-04T10:17:42.059Z,986.15
2019-01-04T10:18:42.061Z,986.11
2019-01-04T10:19:41.993Z,986.11
2019-01-04T10:20:41.986Z,986.08
2019-01-04T10:21:41.981Z,986.05
2019-01-04T10:22:42.004Z,986.04
2019-01-04T10:23:41.864Z,986.03
2019-01-04T10:24:41.860Z,986.02
2019-01-04T10:25:41.828Z,986.04
2019-01-04T10:26:41.794Z,986.04
2019-01-04T10:27:41.860Z,986.02
2019-01-04T10:28:41.732Z,986.03
2019-01-04T10:29:41.711Z,985.98
2019-01-04T10:30:41.693Z,986.02
2019-01-04T10:31:41.647Z,985.98
2019-01-04T10:32:41.784Z,985.99
2019-01-04T10:33:41.631Z,986.02
2019-01-04T10:34:41.593Z,986.07
2019-01-04T10:35:41.554Z,986.08
2019-01-04T10:36:41.551Z,986.09
2019-01-04T10:37:41.603Z,986.11
2019-01-04T10:38:41.510Z,986.13
2019-01-04T10:39:41.448Z,986.13
2019-01-04T10:40:41.437Z,986.09
2019-01-04T10:41:41.388Z,986.11
2019-01-04T10:42:41.378Z,986.12
2019-01-04T10:43:41.444Z,986.15
2019-01-04T10:44:41.352Z,986.14
2019-01-04T10:45:41.297Z,986.20
2019-01-04T10:46:41.309Z,986.24
2019-01-04T10:47:41.219Z,986.26
2019-01-04T10:48:41.336Z,986.24
2019-01-04T10:49:41.201Z,986.27
2019-01-04T10:50:41.148Z,986.31
2019-01-04T10:51:41.175Z,986.28
2019-01-04T10:52:41.114Z,986.32
2019-01-04T10:53:41.071Z,986.33
2019-01-04T10:54:41.141Z,986.37
2019-01-04T10:55:41.019Z,986.41
2019-01-04T10:56:41.021Z,986.48
2019-01-04T10:57:40.962Z,986.47
2019-01-04T10:58:40.953Z,986.47
2019-01-04T10:59:41.010Z,986.45
2019-01-04T11:00:40.872Z,986.49
2019-01-04T11:01:40.869Z,986.43
2019-01-04T11:02:40.822Z,986.43
2019-01-04T11:03:40.810Z,986.49
2019-01-04T11:04:40.866Z,986.47
2019-01-04T11:05:40.755Z,986.47
2019-01-04T11:06:40.714Z,986.50
2019-01-04T11:07:40.701Z,986.49
2019-01-04T11:08:40.674Z,986.47
2019-01-04T11:09:40.747Z,986.44
2019-01-04T11:10:40.650Z,986.44
2019-01-04T11:11:40.575Z,986.45
2019-01-04T11:12:40.572Z,986.47
2019-01-04T11:13:40.542Z,986.51
2019-01-04T11:14:40.616Z,986.50
2019-01-04T11:15:40.513Z,986.52
2019-01-04T11:16:40.474Z,986.50
2019-01-04T11:17:40.447Z,986.54
2019-01-04T11:18:40.408Z,986.56
2019-01-04T11:19:40.397Z,986.53
2019-01-04T11:20:40.464Z,986.59
2019-01-04T11:21:40.373Z,986.56
2019-01-04T11:22:40.314Z,986.61
2019-01-04T11:23:40.284Z,986.60
2019-01-04T11:24:40.255Z,986.64
2019-01-04T11:25:40.266Z,986.66
2019-01-04T11:26:40.279Z,986.69
2019-01-04T11:27:40.167Z,986.70
2019-01-04T11:28:40.137Z,986.73
2019-01-04T11:29:40.123Z,986.69
2019-01-04T11:30:40.110Z,986.70
2019-01-04T11:31:40.203Z,986.67
2019-01-04T11:32:40.160Z,986.68
2019-01-04T11:33:40.009Z,986.69
2019-01-04T11:34:39.997Z,986.70
2019-01-04T11:35:39.968Z,986.72
2019-01-04T11:36:39.920Z,986.73
2019-01-04T11:37:39.992Z,986.77
2019-01-04T11:38:39.864Z,986.78
2019-01-04T11:39:39.846Z,986.82
2019-01-04T11:40:39.802Z,986.86
2019-01-04T11:41:39.809Z,986.89
2019-01-04T11:42:39.882Z,986.88
2019-01-04T11:43:39.745Z,986.92
2019-01-04T11:44:39.732Z,986.92
2019-01-04T11:45:39.702Z,986.95
2019-01-04T11:46:39.668Z,986.93
2019-01-04T11:47:39.789Z,986.98
2019-01-04T11:48:39.614Z,986.94
2019-01-04T11:49:39.583Z,986.95
2019-01-04T11:50:39.563Z,987.01
2019-01-04T11:51:39.563Z,987.01
2019-01-04T11:52:39.665Z,987.04
2019-01-04T11:53:39.472Z,987.06
2019-01-04T11:54:39.511Z,987.08
2019-01-04T11:55:39.483Z,987.10
2019-01-04T11:56:39.405Z,987.08
2019-01-04T11:57:40.742Z,987.10
2019-01-04T11:58:39.433Z,987.14
2019-01-04T11:59:39.667Z,987.12
2019-01-04T12:00:39.308Z,987.15
2019-01-04T12:01:39.303Z,987.15
2019-01-04T12:02:39.221Z,987.19
2019-01-04T12:03:39.225Z,987.20
2019-01-04T12:04:39.338Z,987.17
2019-01-04T12:05:39.156Z,987.20
2019-01-04T12:06:39.128Z,987.19
2019-01-04T12:07:39.108Z,987.19
2019-01-04T12:08:39.061Z,987.19
2019-01-04T12:09:39.199Z,987.20
2019-01-04T12:10:39.037Z,987.19
2019-01-04T12:11:39.028Z,987.21
2019-01-04T12:12:38.961Z,987.17
2019-01-04T12:13:38.933Z,987.19
2019-01-04T12:14:41.452Z,987.21
2019-01-04T12:15:38.889Z,987.22
2019-01-04T12:16:38.891Z,987.25
2019-01-04T12:17:38.859Z,987.28
2019-01-04T12:18:38.823Z,987.29
2019-01-04T12:19:39.140Z,987.26
2019-01-04T12:20:38.922Z,987.30
2019-01-04T12:21:38.765Z,987.35
2019-01-04T12:22:38.849Z,987.32
2019-01-04T12:23:38.683Z,987.33
2019-01-04T12:24:38.848Z,987.39
2019-01-04T12:25:38.636Z,987.42
2019-01-04T12:26:38.625Z,987.38
2019-01-04T12:27:38.718Z,987.41
2019-01-04T12:28:38.560Z,987.39
2019-01-04T12:29:38.702Z,987.43